sensor_id;sensor_type;location;lat;lon;timestamp;P1;durP1;ratioP1;P2;durP2;ratioP2
13834;SDS011;6988;52.614;13.500;2023-09-19T00:04:37;5.40;;;2.43;;
13834;SDS011;6988;52.614;13.500;2023-09-19T00:09:29;4.30;;;2.30;;
13834;SDS011;6988;52.614;13.500;2023-09-19T00:14:28;5.50;;;2.33;;
13834;SDS011;6988;52.614;13.500;2023-09-19T00:19:20;6.13;;;2.77;;
13834;SDS011;6988;52.614;13.500;2023-09-19T00:24:13;6.87;;;2.57;;
13834;SDS011;6988;52.614;13.500;2023-09-19T00:29:07;4.37;;;2.60;;
13834;SDS011;6988;52.614;13.500;2023-09-19T00:34:00;4.80;;;2.40;;
13834;SDS011;6988;52.614;13.500;2023-09-19T00:39:00;5.20;;;2.20;;
13834;SDS011;6988;52.614;13.500;2023-09-19T00:43:52;4.73;;;2.40;;
13834;SDS011;6988;52.614;13.500;2023-09-19T00:48:47;3.63;;;2.10;;
13834;SDS011;6988;52.614;13.500;2023-09-19T00:53:40;3.07;;;2.17;;
13834;SDS011;6988;52.614;13.500;2023-09-19T00:58:36;5.90;;;2.07;;
13834;SDS011;6988;52.614;13.500;2023-09-19T01:03:28;4.40;;;2.20;;
13834;SDS011;6988;52.614;13.500;2023-09-19T01:08:20;4.53;;;2.30;;
13834;SDS011;6988;52.614;13.500;2023-09-19T01:13:16;4.97;;;2.20;;
13834;SDS011;6988;52.614;13.500;2023-09-19T01:18:26;5.17;;;2.27;;
13834;SDS011;6988;52.614;13.500;2023-09-19T01:23:29;5.43;;;2.23;;
13834;SDS011;6988;52.614;13.500;2023-09-19T01:34:12;4.97;;;2.27;;
13834;SDS011;6988;52.614;13.500;2023-09-19T01:39:04;3.83;;;2.60;;
13834;SDS011;6988;52.614;13.500;2023-09-19T01:44:00;4.27;;;2.40;;
13834;SDS011;6988;52.614;13.500;2023-09-19T01:49:03;5.13;;;2.23;;
13834;SDS011;6988;52.614;13.500;2023-09-19T01:54:16;4.67;;;1.90;;
13834;SDS011;6988;52.614;13.500;2023-09-19T01:59:20;5.10;;;2.10;;
13834;SDS011;6988;52.614;13.500;2023-09-19T02:04:19;4.30;;;2.10;;
13834;SDS011;6988;52.614;13.500;2023-09-19T02:09:11;3.97;;;2.00;;
13834;SDS011;6988;52.614;13.500;2023-09-19T02:14:03;3.27;;;2.17;;
13834;SDS011;6988;52.614;13.500;2023-09-19T02:18:58;3.10;;;1.80;;
13834;SDS011;6988;52.614;13.500;2023-09-19T02:23:52;2.43;;;2.00;;
13834;SDS011;6988;52.614;13.500;2023-09-19T02:28:43;4.43;;;2.10;;
13834;SDS011;6988;52.614;13.500;2023-09-19T02:33:36;4.80;;;2.10;;
13834;SDS011;6988;52.614;13.500;2023-09-19T02:38:28;4.07;;;1.90;;
13834;SDS011;6988;52.614;13.500;2023-09-19T02:43:21;3.60;;;2.00;;
13834;SDS011;6988;52.614;13.500;2023-09-19T02:48:13;4.20;;;2.00;;
13834;SDS011;6988;52.614;13.500;2023-09-19T02:53:05;3.57;;;1.90;;
13834;SDS011;6988;52.614;13.500;2023-09-19T02:57:57;2.63;;;1.83;;
13834;SDS011;6988;52.614;13.500;2023-09-19T03:02:52;5.70;;;2.33;;
13834;SDS011;6988;52.614;13.500;2023-09-19T03:07:46;3.37;;;1.83;;
13834;SDS011;6988;52.614;13.500;2023-09-19T03:12:40;2.60;;;2.07;;
13834;SDS011;6988;52.614;13.500;2023-09-19T03:17:32;3.67;;;1.90;;
13834;SDS011;6988;52.614;13.500;2023-09-19T03:22:25;2.77;;;2.03;;
13834;SDS011;6988;52.614;13.500;2023-09-19T03:27:18;5.43;;;2.07;;
13834;SDS011;6988;52.614;13.500;2023-09-19T03:32:11;3.23;;;1.87;;
13834;SDS011;6988;52.614;13.500;2023-09-19T03:37:04;5.73;;;1.97;;
13834;SDS011;6988;52.614;13.500;2023-09-19T03:41:58;2.87;;;1.57;;
13834;SDS011;6988;52.614;13.500;2023-09-19T03:46:50;4.73;;;1.50;;
13834;SDS011;6988;52.614;13.500;2023-09-19T03:51:41;5.93;;;1.30;;
13834;SDS011;6988;52.614;13.500;2023-09-19T03:56:33;4.13;;;1.37;;
13834;SDS011;6988;52.614;13.500;2023-09-19T04:01:27;5.20;;;1.40;;
13834;SDS011;6988;52.614;13.500;2023-09-19T04:06:21;3.00;;;1.57;;
13834;SDS011;6988;52.614;13.500;2023-09-19T04:11:12;1.90;;;1.20;;
13834;SDS011;6988;52.614;13.500;2023-09-19T04:16:04;2.37;;;1.30;;
13834;SDS011;6988;52.614;13.500;2023-09-19T04:20:58;2.70;;;1.40;;
13834;SDS011;6988;52.614;13.500;2023-09-19T04:25:52;1.77;;;1.43;;
13834;SDS011;6988;52.614;13.500;2023-09-19T04:30:44;1.90;;;1.33;;
13834;SDS011;6988;52.614;13.500;2023-09-19T04:35:36;3.60;;;1.40;;
13834;SDS011;6988;52.614;13.500;2023-09-19T04:40:30;2.63;;;1.40;;
13834;SDS011;6988;52.614;13.500;2023-09-19T04:45:22;3.97;;;1.47;;
13834;SDS011;6988;52.614;13.500;2023-09-19T04:50:14;3.00;;;1.50;;
13834;SDS011;6988;52.614;13.500;2023-09-19T04:55:07;1.97;;;1.47;;
13834;SDS011;6988;52.614;13.500;2023-09-19T05:00:02;2.77;;;1.77;;
13834;SDS011;6988;52.614;13.500;2023-09-19T05:05:01;4.97;;;2.10;;
13834;SDS011;6988;52.614;13.500;2023-09-19T05:09:54;4.70;;;1.73;;
13834;SDS011;6988;52.614;13.500;2023-09-19T05:14:46;4.53;;;2.30;;
13834;SDS011;6988;52.614;13.500;2023-09-19T05:19:39;2.60;;;1.83;;
13834;SDS011;6988;52.614;13.500;2023-09-19T05:24:31;1.87;;;1.70;;
13834;SDS011;6988;52.614;13.500;2023-09-19T05:29:23;4.43;;;1.80;;
13834;SDS011;6988;52.614;13.500;2023-09-19T05:34:14;3.33;;;1.83;;
13834;SDS011;6988;52.614;13.500;2023-09-19T05:39:08;4.07;;;2.00;;
13834;SDS011;6988;52.614;13.500;2023-09-19T05:44:00;3.60;;;2.10;;
13834;SDS011;6988;52.614;13.500;2023-09-19T05:48:53;3.13;;;1.80;;
13834;SDS011;6988;52.614;13.500;2023-09-19T05:53:46;4.57;;;2.00;;
13834;SDS011;6988;52.614;13.500;2023-09-19T05:58:39;7.10;;;1.80;;
13834;SDS011;6988;52.614;13.500;2023-09-19T06:03:34;3.10;;;1.90;;
13834;SDS011;6988;52.614;13.500;2023-09-19T06:08:26;4.03;;;2.10;;
13834;SDS011;6988;52.614;13.500;2023-09-19T06:13:18;3.13;;;1.60;;
13834;SDS011;6988;52.614;13.500;2023-09-19T06:18:12;4.67;;;1.80;;
13834;SDS011;6988;52.614;13.500;2023-09-19T06:23:09;4.87;;;2.10;;
13834;SDS011;6988;52.614;13.500;2023-09-19T06:28:01;3.53;;;2.00;;
13834;SDS011;6988;52.614;13.500;2023-09-19T06:32:55;4.60;;;2.13;;
13834;SDS011;6988;52.614;13.500;2023-09-19T06:37:49;3.53;;;1.67;;
13834;SDS011;6988;52.614;13.500;2023-09-19T06:42:41;4.07;;;2.10;;
13834;SDS011;6988;52.614;13.500;2023-09-19T06:47:35;3.50;;;1.90;;
13834;SDS011;6988;52.614;13.500;2023-09-19T06:52:27;5.77;;;2.03;;
13834;SDS011;6988;52.614;13.500;2023-09-19T06:57:20;3.80;;;2.00;;
13834;SDS011;6988;52.614;13.500;2023-09-19T07:02:12;3.53;;;2.10;;
13834;SDS011;6988;52.614;13.500;2023-09-19T07:07:04;4.57;;;2.17;;
13834;SDS011;6988;52.614;13.500;2023-09-19T07:11:58;6.77;;;2.10;;
13834;SDS011;6988;52.614;13.500;2023-09-19T07:16:52;3.20;;;2.07;;
13834;SDS011;6988;52.614;13.500;2023-09-19T07:21:44;4.77;;;2.27;;
13834;SDS011;6988;52.614;13.500;2023-09-19T07:26:37;3.77;;;1.97;;
13834;SDS011;6988;52.614;13.500;2023-09-19T07:31:30;4.83;;;1.90;;
13834;SDS011;6988;52.614;13.500;2023-09-19T07:36:23;3.93;;;1.60;;
13834;SDS011;6988;52.614;13.500;2023-09-19T07:41:15;3.57;;;1.70;;
13834;SDS011;6988;52.614;13.500;2023-09-19T07:46:07;3.53;;;1.70;;
13834;SDS011;6988;52.614;13.500;2023-09-19T07:51:01;3.60;;;1.63;;
13834;SDS011;6988;52.614;13.500;2023-09-19T07:56:02;3.23;;;1.60;;
13834;SDS011;6988;52.614;13.500;2023-09-19T08:00:56;4.00;;;1.77;;
13834;SDS011;6988;52.614;13.500;2023-09-19T08:05:53;5.13;;;2.23;;
13834;SDS011;6988;52.614;13.500;2023-09-19T08:10:52;3.60;;;1.70;;
13834;SDS011;6988;52.614;13.500;2023-09-19T08:15:47;3.33;;;2.00;;
13834;SDS011;6988;52.614;13.500;2023-09-19T08:20:39;7.60;;;2.37;;
13834;SDS011;6988;52.614;13.500;2023-09-19T08:25:32;2.70;;;1.67;;
13834;SDS011;6988;52.614;13.500;2023-09-19T08:30:24;3.53;;;1.80;;
13834;SDS011;6988;52.614;13.500;2023-09-19T08:35:18;4.07;;;1.90;;
13834;SDS011;6988;52.614;13.500;2023-09-19T08:40:10;3.93;;;1.77;;
13834;SDS011;6988;52.614;13.500;2023-09-19T08:45:03;4.63;;;1.90;;
13834;SDS011;6988;52.614;13.500;2023-09-19T08:49:57;6.80;;;2.17;;
13834;SDS011;6988;52.614;13.500;2023-09-19T08:55:06;4.83;;;2.00;;
13834;SDS011;6988;52.614;13.500;2023-09-19T09:00:03;4.73;;;2.20;;
13834;SDS011;6988;52.614;13.500;2023-09-19T09:05:00;5.40;;;2.30;;
13834;SDS011;6988;52.614;13.500;2023-09-19T09:09:55;3.60;;;1.90;;
13834;SDS011;6988;52.614;13.500;2023-09-19T09:14:49;4.33;;;2.10;;
13834;SDS011;6988;52.614;13.500;2023-09-19T09:19:42;6.70;;;2.20;;
13834;SDS011;6988;52.614;13.500;2023-09-19T09:24:34;3.93;;;2.07;;
13834;SDS011;6988;52.614;13.500;2023-09-19T09:29:43;5.23;;;2.10;;
13834;SDS011;6988;52.614;13.500;2023-09-19T09:34:40;5.93;;;2.43;;
13834;SDS011;6988;52.614;13.500;2023-09-19T09:39:32;5.28;;;2.05;;
13834;SDS011;6988;52.614;13.500;2023-09-19T09:44:25;3.78;;;1.90;;
13834;SDS011;6988;52.614;13.500;2023-09-19T09:49:22;4.35;;;1.80;;
13834;SDS011;6988;52.614;13.500;2023-09-19T09:54:18;4.50;;;2.15;;
13834;SDS011;6988;52.614;13.500;2023-09-19T09:59:10;6.63;;;2.13;;
13834;SDS011;6988;52.614;13.500;2023-09-19T10:04:07;5.90;;;2.22;;
13834;SDS011;6988;52.614;13.500;2023-09-19T10:09:00;6.88;;;2.53;;
13834;SDS011;6988;52.614;13.500;2023-09-19T10:14:02;6.32;;;2.30;;
13834;SDS011;6988;52.614;13.500;2023-09-19T10:18:56;5.43;;;2.05;;
13834;SDS011;6988;52.614;13.500;2023-09-19T10:23:53;4.72;;;2.60;;
13834;SDS011;6988;52.614;13.500;2023-09-19T10:28:46;9.15;;;2.75;;
13834;SDS011;6988;52.614;13.500;2023-09-19T10:33:42;4.78;;;2.38;;
13834;SDS011;6988;52.614;13.500;2023-09-19T10:38:35;6.90;;;2.45;;
13834;SDS011;6988;52.614;13.500;2023-09-19T10:43:32;6.70;;;2.40;;
13834;SDS011;6988;52.614;13.500;2023-09-19T10:48:26;5.47;;;2.42;;
13834;SDS011;6988;52.614;13.500;2023-09-19T10:53:19;5.75;;;2.67;;
13834;SDS011;6988;52.614;13.500;2023-09-19T10:58:12;6.90;;;2.10;;
13834;SDS011;6988;52.614;13.500;2023-09-19T11:03:19;6.10;;;2.22;;
13834;SDS011;6988;52.614;13.500;2023-09-19T11:08:21;4.72;;;2.25;;
13834;SDS011;6988;52.614;13.500;2023-09-19T11:13:23;5.38;;;2.67;;
13834;SDS011;6988;52.614;13.500;2023-09-19T11:23:46;5.82;;;2.40;;
13834;SDS011;6988;52.614;13.500;2023-09-19T11:29:24;8.45;;;2.67;;
13834;SDS011;6988;52.614;13.500;2023-09-19T11:34:37;5.03;;;2.10;;
13834;SDS011;6988;52.614;13.500;2023-09-19T11:39:32;5.55;;;2.25;;
13834;SDS011;6988;52.614;13.500;2023-09-19T11:44:34;4.82;;;1.90;;
13834;SDS011;6988;52.614;13.500;2023-09-19T11:49:28;5.57;;;2.13;;
13834;SDS011;6988;52.614;13.500;2023-09-19T11:54:23;5.00;;;2.30;;
13834;SDS011;6988;52.614;13.500;2023-09-19T11:59:20;3.35;;;1.60;;
13834;SDS011;6988;52.614;13.500;2023-09-19T12:04:13;5.97;;;1.70;;
13834;SDS011;6988;52.614;13.500;2023-09-19T12:09:05;9.90;;;2.03;;
13834;SDS011;6988;52.614;13.500;2023-09-19T12:14:06;4.93;;;1.73;;
13834;SDS011;6988;52.614;13.500;2023-09-19T12:19:00;5.77;;;1.67;;
13834;SDS011;6988;52.614;13.500;2023-09-19T12:24:12;4.55;;;1.90;;
13834;SDS011;6988;52.614;13.500;2023-09-19T12:29:04;4.47;;;1.65;;
13834;SDS011;6988;52.614;13.500;2023-09-19T12:33:57;4.75;;;2.00;;
13834;SDS011;6988;52.614;13.500;2023-09-19T12:38:52;4.50;;;1.65;;
13834;SDS011;6988;52.614;13.500;2023-09-19T12:43:45;3.83;;;1.70;;
13834;SDS011;6988;52.614;13.500;2023-09-19T12:48:37;4.15;;;1.40;;
13834;SDS011;6988;52.614;13.500;2023-09-19T12:53:35;4.35;;;1.50;;
13834;SDS011;6988;52.614;13.500;2023-09-19T12:58:32;4.53;;;1.70;;
13834;SDS011;6988;52.614;13.500;2023-09-19T13:03:25;3.90;;;1.60;;
13834;SDS011;6988;52.614;13.500;2023-09-19T13:08:23;3.80;;;1.50;;
13834;SDS011;6988;52.614;13.500;2023-09-19T13:13:33;3.95;;;1.50;;
13834;SDS011;6988;52.614;13.500;2023-09-19T13:18:26;4.43;;;1.60;;
13834;SDS011;6988;52.614;13.500;2023-09-19T13:23:26;5.40;;;1.58;;
13834;SDS011;6988;52.614;13.500;2023-09-19T13:28:18;5.05;;;1.83;;
13834;SDS011;6988;52.614;13.500;2023-09-19T13:33:11;5.18;;;1.70;;
13834;SDS011;6988;52.614;13.500;2023-09-19T13:38:09;5.40;;;1.60;;
13834;SDS011;6988;52.614;13.500;2023-09-19T13:43:01;4.05;;;1.38;;
13834;SDS011;6988;52.614;13.500;2023-09-19T13:47:53;4.23;;;1.70;;
13834;SDS011;6988;52.614;13.500;2023-09-19T13:52:46;5.57;;;1.53;;
13834;SDS011;6988;52.614;13.500;2023-09-19T13:57:41;6.37;;;1.60;;
13834;SDS011;6988;52.614;13.500;2023-09-19T14:02:33;4.80;;;1.60;;
13834;SDS011;6988;52.614;13.500;2023-09-19T14:07:25;4.00;;;1.67;;
13834;SDS011;6988;52.614;13.500;2023-09-19T14:12:18;3.60;;;1.40;;
13834;SDS011;6988;52.614;13.500;2023-09-19T14:17:11;3.57;;;1.40;;
13834;SDS011;6988;52.614;13.500;2023-09-19T14:22:03;5.00;;;1.63;;
13834;SDS011;6988;52.614;13.500;2023-09-19T14:26:57;4.83;;;1.80;;
13834;SDS011;6988;52.614;13.500;2023-09-19T14:31:50;3.47;;;1.53;;
13834;SDS011;6988;52.614;13.500;2023-09-19T14:36:43;5.93;;;1.60;;
13834;SDS011;6988;52.614;13.500;2023-09-19T14:41:34;5.47;;;1.30;;
13834;SDS011;6988;52.614;13.500;2023-09-19T14:46:26;3.17;;;1.33;;
13834;SDS011;6988;52.614;13.500;2023-09-19T14:51:19;3.60;;;1.50;;
13834;SDS011;6988;52.614;13.500;2023-09-19T14:56:12;4.85;;;1.73;;
13834;SDS011;6988;52.614;13.500;2023-09-19T15:01:08;5.30;;;1.90;;
13834;SDS011;6988;52.614;13.500;2023-09-19T15:06:02;4.43;;;1.53;;
13834;SDS011;6988;52.614;13.500;2023-09-19T15:10:56;4.97;;;1.30;;
13834;SDS011;6988;52.614;13.500;2023-09-19T15:15:53;5.53;;;1.65;;
13834;SDS011;6988;52.614;13.500;2023-09-19T15:20:50;4.27;;;1.60;;
13834;SDS011;6988;52.614;13.500;2023-09-19T15:25:47;5.37;;;1.97;;
13834;SDS011;6988;52.614;13.500;2023-09-19T15:30:41;5.57;;;1.83;;
13834;SDS011;6988;52.614;13.500;2023-09-19T15:35:33;5.00;;;1.97;;
13834;SDS011;6988;52.614;13.500;2023-09-19T15:40:27;3.40;;;1.60;;
13834;SDS011;6988;52.614;13.500;2023-09-19T15:45:19;6.30;;;1.70;;
13834;SDS011;6988;52.614;13.500;2023-09-19T15:50:12;4.00;;;1.80;;
13834;SDS011;6988;52.614;13.500;2023-09-19T15:55:05;5.83;;;1.73;;
13834;SDS011;6988;52.614;13.500;2023-09-19T15:59:58;5.60;;;1.70;;
13834;SDS011;6988;52.614;13.500;2023-09-19T16:04:50;6.37;;;2.37;;
13834;SDS011;6988;52.614;13.500;2023-09-19T16:09:43;5.83;;;1.67;;
13834;SDS011;6988;52.614;13.500;2023-09-19T16:14:35;4.93;;;1.90;;
13834;SDS011;6988;52.614;13.500;2023-09-19T16:19:27;5.10;;;2.20;;
13834;SDS011;6988;52.614;13.500;2023-09-19T16:24:19;4.77;;;1.90;;
13834;SDS011;6988;52.614;13.500;2023-09-19T16:29:12;6.50;;;2.00;;
13834;SDS011;6988;52.614;13.500;2023-09-19T16:34:04;5.17;;;1.90;;
13834;SDS011;6988;52.614;13.500;2023-09-19T16:38:56;5.47;;;1.90;;
13834;SDS011;6988;52.614;13.500;2023-09-19T16:43:49;4.60;;;2.07;;
13834;SDS011;6988;52.614;13.500;2023-09-19T16:48:43;5.00;;;1.80;;
13834;SDS011;6988;52.614;13.500;2023-09-19T16:53:39;5.00;;;2.13;;
13834;SDS011;6988;52.614;13.500;2023-09-19T16:58:32;5.57;;;1.97;;
13834;SDS011;6988;52.614;13.500;2023-09-19T17:03:24;5.23;;;2.40;;
13834;SDS011;6988;52.614;13.500;2023-09-19T17:08:18;3.80;;;2.27;;
13834;SDS011;6988;52.614;13.500;2023-09-19T17:13:10;4.43;;;2.07;;
13834;SDS011;6988;52.614;13.500;2023-09-19T17:18:02;4.43;;;2.07;;
13834;SDS011;6988;52.614;13.500;2023-09-19T17:22:55;6.20;;;2.20;;
13834;SDS011;6988;52.614;13.500;2023-09-19T17:27:49;4.47;;;2.10;;
13834;SDS011;6988;52.614;13.500;2023-09-19T17:32:41;7.30;;;2.27;;
13834;SDS011;6988;52.614;13.500;2023-09-19T17:37:33;5.30;;;2.37;;
13834;SDS011;6988;52.614;13.500;2023-09-19T17:42:25;4.67;;;2.20;;
13834;SDS011;6988;52.614;13.500;2023-09-19T17:47:18;7.00;;;3.40;;
13834;SDS011;6988;52.614;13.500;2023-09-19T17:52:12;7.53;;;4.30;;
13834;SDS011;6988;52.614;13.500;2023-09-19T17:57:05;7.30;;;4.10;;
13834;SDS011;6988;52.614;13.500;2023-09-19T18:01:57;10.17;;;4.30;;
13834;SDS011;6988;52.614;13.500;2023-09-19T18:06:51;6.27;;;3.20;;
13834;SDS011;6988;52.614;13.500;2023-09-19T18:11:42;7.83;;;2.43;;
13834;SDS011;6988;52.614;13.500;2023-09-19T18:16:34;7.40;;;2.78;;
13834;SDS011;6988;52.614;13.500;2023-09-19T18:21:27;8.77;;;2.50;;
13834;SDS011;6988;52.614;13.500;2023-09-19T18:26:21;4.60;;;2.30;;
13834;SDS011;6988;52.614;13.500;2023-09-19T18:31:13;5.60;;;2.57;;
13834;SDS011;6988;52.614;13.500;2023-09-19T18:36:06;5.27;;;2.13;;
13834;SDS011;6988;52.614;13.500;2023-09-19T18:40:59;5.90;;;2.43;;
13834;SDS011;6988;52.614;13.500;2023-09-19T18:45:58;8.10;;;2.50;;
13834;SDS011;6988;52.614;13.500;2023-09-19T18:50:49;5.97;;;2.30;;
13834;SDS011;6988;52.614;13.500;2023-09-19T18:55:41;4.83;;;2.20;;
13834;SDS011;6988;52.614;13.500;2023-09-19T19:00:34;5.13;;;2.50;;
13834;SDS011;6988;52.614;13.500;2023-09-19T19:05:27;4.70;;;2.40;;
13834;SDS011;6988;52.614;13.500;2023-09-19T19:10:22;6.40;;;2.70;;
13834;SDS011;6988;52.614;13.500;2023-09-19T19:15:14;7.37;;;2.63;;
13834;SDS011;6988;52.614;13.500;2023-09-19T19:20:07;5.40;;;2.33;;
13834;SDS011;6988;52.614;13.500;2023-09-19T19:25:02;5.33;;;2.77;;
13834;SDS011;6988;52.614;13.500;2023-09-19T19:29:55;5.30;;;2.80;;
13834;SDS011;6988;52.614;13.500;2023-09-19T19:34:47;5.60;;;2.20;;
13834;SDS011;6988;52.614;13.500;2023-09-19T19:39:38;4.83;;;2.23;;
13834;SDS011;6988;52.614;13.500;2023-09-19T19:44:32;5.90;;;1.93;;
13834;SDS011;6988;52.614;13.500;2023-09-19T19:49:27;7.13;;;2.30;;
13834;SDS011;6988;52.614;13.500;2023-09-19T19:54:19;4.30;;;2.17;;
13834;SDS011;6988;52.614;13.500;2023-09-19T19:59:12;5.13;;;2.23;;
13834;SDS011;6988;52.614;13.500;2023-09-19T20:04:06;5.00;;;2.33;;
13834;SDS011;6988;52.614;13.500;2023-09-19T20:08:57;6.60;;;2.27;;
13834;SDS011;6988;52.614;13.500;2023-09-19T20:13:49;4.87;;;2.20;;
13834;SDS011;6988;52.614;13.500;2023-09-19T20:18:41;5.83;;;2.50;;
13834;SDS011;6988;52.614;13.500;2023-09-19T20:23:34;5.80;;;2.50;;
13834;SDS011;6988;52.614;13.500;2023-09-19T20:28:26;6.83;;;2.20;;
13834;SDS011;6988;52.614;13.500;2023-09-19T20:33:19;8.20;;;2.33;;
13834;SDS011;6988;52.614;13.500;2023-09-19T20:38:14;4.77;;;2.00;;
13834;SDS011;6988;52.614;13.500;2023-09-19T20:43:08;5.67;;;2.00;;
13834;SDS011;6988;52.614;13.500;2023-09-19T20:48:00;7.00;;;2.00;;
13834;SDS011;6988;52.614;13.500;2023-09-19T20:52:52;4.70;;;2.47;;
13834;SDS011;6988;52.614;13.500;2023-09-19T20:57:44;6.47;;;2.37;;
13834;SDS011;6988;52.614;13.500;2023-09-19T21:02:38;5.87;;;2.03;;
13834;SDS011;6988;52.614;13.500;2023-09-19T21:07:30;6.97;;;2.00;;
13834;SDS011;6988;52.614;13.500;2023-09-19T21:12:22;5.40;;;1.80;;
13834;SDS011;6988;52.614;13.500;2023-09-19T21:17:13;5.33;;;2.10;;
13834;SDS011;6988;52.614;13.500;2023-09-19T21:22:06;6.67;;;2.10;;
13834;SDS011;6988;52.614;13.500;2023-09-19T21:26:59;4.87;;;2.23;;
13834;SDS011;6988;52.614;13.500;2023-09-19T21:31:54;5.90;;;2.20;;
13834;SDS011;6988;52.614;13.500;2023-09-19T21:36:46;5.67;;;1.80;;
13834;SDS011;6988;52.614;13.500;2023-09-19T21:41:42;5.33;;;2.20;;
13834;SDS011;6988;52.614;13.500;2023-09-19T22:04:55;6.90;;;2.20;;
13834;SDS011;6988;52.614;13.500;2023-09-19T22:09:48;5.93;;;2.00;;
13834;SDS011;6988;52.614;13.500;2023-09-19T22:14:40;7.00;;;2.40;;
13834;SDS011;6988;52.614;13.500;2023-09-19T22:19:33;5.60;;;2.07;;
13834;SDS011;6988;52.614;13.500;2023-09-19T22:24:30;8.13;;;2.10;;
13834;SDS011;6988;52.614;13.500;2023-09-19T22:29:21;7.17;;;2.30;;
13834;SDS011;6988;52.614;13.500;2023-09-19T22:34:13;4.80;;;1.97;;
13834;SDS011;6988;52.614;13.500;2023-09-19T22:39:06;5.97;;;2.17;;
13834;SDS011;6988;52.614;13.500;2023-09-19T22:44:04;3.40;;;2.07;;
13834;SDS011;6988;52.614;13.500;2023-09-19T22:48:57;5.30;;;2.20;;
13834;SDS011;6988;52.614;13.500;2023-09-19T22:53:50;3.63;;;2.00;;
13834;SDS011;6988;52.614;13.500;2023-09-19T22:58:47;5.53;;;2.20;;
13834;SDS011;6988;52.614;13.500;2023-09-19T23:03:43;4.67;;;2.03;;
13834;SDS011;6988;52.614;13.500;2023-09-19T23:08:41;6.63;;;1.93;;
13834;SDS011;6988;52.614;13.500;2023-09-19T23:13:33;5.90;;;2.30;;
13834;SDS011;6988;52.614;13.500;2023-09-19T23:18:28;6.27;;;2.20;;
13834;SDS011;6988;52.614;13.500;2023-09-19T23:23:22;5.57;;;1.97;;
13834;SDS011;6988;52.614;13.500;2023-09-19T23:28:14;5.07;;;2.07;;
13834;SDS011;6988;52.614;13.500;2023-09-19T23:33:06;6.57;;;2.60;;
13834;SDS011;6988;52.614;13.500;2023-09-19T23:37:58;4.40;;;1.90;;
13834;SDS011;6988;52.614;13.500;2023-09-19T23:42:52;6.47;;;2.37;;
13834;SDS011;6988;52.614;13.500;2023-09-19T23:47:44;5.77;;;2.27;;
13834;SDS011;6988;52.614;13.500;2023-09-19T23:52:36;5.10;;;1.90;;
13834;SDS011;6988;52.614;13.500;2023-09-19T23:57:27;4.90;;;2.00;;
